createdAt,value
2018-02-11T00:00:16.445Z,3.40
2018-02-11T00:02:42.768Z,3.40
2018-02-11T00:05:09.135Z,3.40
2018-02-11T00:07:35.373Z,3.50
2018-02-11T00:10:01.654Z,3.50
2018-02-11T00:12:27.976Z,3.50
2018-02-11T00:14:54.232Z,3.50
2018-02-11T00:17:21.271Z,3.40
2018-02-11T00:19:47.581Z,3.40
2018-02-11T00:22:13.841Z,3.50
2018-02-11T00:24:40.831Z,3.40
2018-02-11T00:27:07.079Z,3.40
2018-02-11T00:29:34.139Z,3.50
2018-02-11T00:32:00.423Z,3.50
2018-02-11T00:34:26.712Z,3.50
2018-02-11T00:36:53.013Z,3.60
2018-02-11T00:39:19.281Z,3.60
2018-02-11T00:41:45.540Z,3.60
2018-02-11T00:44:11.828Z,3.50
2018-02-11T00:46:38.128Z,3.60
2018-02-11T00:49:04.393Z,3.70
2018-02-11T00:51:30.720Z,3.60
2018-02-11T00:53:56.982Z,3.60
2018-02-11T00:56:23.984Z,3.60
2018-02-11T00:58:50.262Z,3.60
2018-02-11T01:01:16.565Z,3.60
2018-02-11T01:03:42.847Z,3.50
2018-02-11T01:06:09.141Z,3.50
2018-02-11T01:08:36.149Z,3.40
2018-02-11T01:11:02.521Z,3.40
2018-02-11T01:13:29.531Z,3.50
2018-02-11T01:15:55.787Z,3.50
2018-02-11T01:18:22.047Z,3.40
2018-02-11T01:20:48.378Z,3.40
2018-02-11T01:23:14.697Z,3.30
2018-02-11T01:25:40.999Z,3.40
2018-02-11T01:28:07.332Z,3.30
2018-02-11T01:30:33.623Z,3.30
2018-02-11T01:32:59.942Z,3.30
2018-02-11T01:35:26.241Z,3.20
2018-02-11T01:37:53.276Z,3.10
2018-02-11T01:40:19.560Z,3.10
2018-02-11T01:42:45.850Z,3.10
2018-02-11T01:45:12.920Z,3.20
2018-02-11T01:47:39.204Z,3.20
2018-02-11T01:50:14.675Z,3.10
2018-02-11T01:52:41.710Z,3.10
2018-02-11T01:55:08.050Z,3.00
2018-02-11T01:57:35.120Z,3.10
2018-02-11T02:00:01.419Z,3.10
2018-02-11T02:02:27.782Z,3.10
2018-02-11T02:04:54.042Z,3.00
2018-02-11T02:07:20.316Z,2.90
2018-02-11T02:09:46.576Z,2.80
2018-02-11T02:12:12.937Z,2.90
2018-02-11T02:14:39.219Z,2.90
2018-02-11T02:17:06.212Z,2.90
2018-02-11T02:19:32.473Z,2.90
2018-02-11T02:21:58.755Z,2.90
2018-02-11T02:24:25.899Z,2.90
2018-02-11T02:26:52.172Z,3.00
2018-02-11T02:29:18.469Z,2.90
2018-02-11T02:31:44.746Z,3.00
2018-02-11T02:34:11.108Z,3.00
2018-02-11T02:36:37.367Z,3.10
2018-02-11T02:39:03.629Z,3.00
2018-02-11T02:41:29.875Z,3.10
2018-02-11T02:43:56.898Z,3.00
2018-02-11T02:46:23.203Z,3.00
2018-02-11T02:48:49.480Z,3.00
2018-02-11T02:51:16.504Z,2.90
2018-02-11T02:53:43.576Z,3.00
2018-02-11T02:56:09.851Z,3.00
2018-02-11T02:58:36.153Z,3.00
2018-02-11T03:01:03.204Z,3.00
2018-02-11T03:03:29.502Z,2.90
2018-02-11T03:05:55.774Z,2.90
2018-02-11T03:08:22.088Z,2.90
2018-02-11T03:10:49.120Z,2.90
2018-02-11T03:13:16.183Z,2.90
2018-02-11T03:15:43.187Z,3.00
2018-02-11T03:18:09.477Z,3.00
2018-02-11T03:20:35.775Z,3.10
2018-02-11T03:23:02.072Z,3.20
2018-02-11T03:25:28.325Z,3.30
2018-02-11T03:27:54.653Z,3.40
2018-02-11T03:30:20.958Z,3.50
2018-02-11T03:32:47.209Z,3.50
2018-02-11T03:35:13.494Z,3.60
2018-02-11T03:37:39.775Z,3.50
2018-02-11T03:40:06.075Z,3.50
2018-02-11T03:42:32.446Z,3.50
2018-02-11T03:44:58.700Z,3.40
2018-02-11T03:47:25.728Z,3.40
2018-02-11T03:49:52.040Z,3.40
2018-02-11T03:52:18.340Z,3.50
2018-02-11T03:54:44.585Z,3.50
2018-02-11T03:57:10.838Z,3.50
2018-02-11T03:59:37.098Z,3.40
2018-02-11T04:02:03.370Z,3.30
2018-02-11T04:04:29.624Z,3.40
2018-02-11T04:06:55.918Z,3.50
2018-02-11T04:09:22.184Z,3.40
2018-02-11T04:11:48.498Z,3.40
2018-02-11T04:14:14.804Z,3.30
2018-02-11T04:16:41.134Z,3.20
2018-02-11T04:19:07.524Z,3.20
2018-02-11T04:21:34.650Z,3.20
2018-02-11T04:24:00.961Z,3.20
2018-02-11T04:26:27.243Z,3.30
2018-02-11T04:28:53.507Z,3.20
2018-02-11T04:31:19.774Z,3.30
2018-02-11T04:33:46.065Z,3.30
2018-02-11T04:36:12.357Z,3.30
2018-02-11T04:38:38.665Z,3.30
2018-02-11T04:41:04.955Z,3.30
2018-02-11T04:43:31.265Z,3.10
2018-02-11T04:46:05.186Z,2.80
2018-02-11T04:48:31.554Z,2.80
2018-02-11T04:50:57.858Z,2.80
2018-02-11T04:53:24.153Z,2.70
2018-02-11T04:55:51.183Z,2.60
2018-02-11T04:58:17.463Z,2.60
2018-02-11T05:00:43.720Z,2.50
2018-02-11T05:03:10.053Z,2.50
2018-02-11T05:05:36.359Z,2.50
2018-02-11T05:08:02.680Z,2.50
2018-02-11T05:10:28.963Z,2.50
2018-02-11T05:12:55.261Z,2.50
2018-02-11T05:15:21.676Z,2.50
2018-02-11T05:17:47.939Z,2.40
2018-02-11T05:20:14.289Z,2.30
2018-02-11T05:22:40.562Z,2.20
2018-02-11T05:25:06.803Z,2.20
2018-02-11T05:27:33.094Z,2.20
2018-02-11T05:29:59.359Z,2.20
2018-02-11T05:32:25.671Z,2.20
2018-02-11T05:34:51.988Z,2.10
2018-02-11T05:37:19.056Z,2.00
2018-02-11T05:39:45.353Z,2.00
2018-02-11T05:42:11.620Z,2.00
2018-02-11T05:44:37.926Z,1.90
2018-02-11T05:47:04.974Z,1.80
2018-02-11T05:49:32.008Z,1.80
2018-02-11T05:51:58.348Z,1.80
2018-02-11T05:54:25.358Z,1.70
2018-02-11T05:56:51.665Z,1.70
2018-02-11T05:59:17.951Z,1.70
2018-02-11T06:01:44.230Z,1.70
2018-02-11T06:04:10.512Z,1.70
2018-02-11T06:06:36.767Z,1.70
2018-02-11T06:09:03.847Z,1.70
2018-02-11T06:11:30.116Z,1.70
2018-02-11T06:13:56.417Z,1.70
2018-02-11T06:16:22.673Z,1.70
2018-02-11T06:18:48.947Z,1.70
2018-02-11T06:21:15.231Z,1.80
2018-02-11T06:23:41.493Z,1.80
2018-02-11T06:26:07.836Z,1.80
2018-02-11T06:28:34.111Z,1.90
2018-02-11T06:31:00.367Z,2.00
2018-02-11T06:33:27.358Z,1.90
2018-02-11T06:35:53.670Z,1.90
2018-02-11T06:38:19.936Z,1.90
2018-02-11T06:40:46.221Z,1.90
2018-02-11T06:43:13.250Z,1.90
2018-02-11T06:45:39.597Z,1.90
2018-02-11T06:48:06.676Z,1.90
2018-02-11T06:50:32.944Z,1.90
2018-02-11T06:52:59.346Z,1.90
2018-02-11T06:55:25.634Z,1.90
2018-02-11T06:57:52.657Z,1.80
2018-02-11T07:00:18.916Z,1.80
2018-02-11T07:02:45.167Z,1.80
2018-02-11T07:05:18.496Z,1.90
2018-02-11T07:07:44.812Z,1.80
2018-02-11T07:10:11.070Z,1.90
2018-02-11T07:12:37.426Z,2.00
2018-02-11T07:15:04.648Z,2.10
2018-02-11T07:17:30.935Z,2.10
2018-02-11T07:19:57.212Z,2.20
2018-02-11T07:22:23.466Z,2.20
2018-02-11T07:24:50.900Z,2.30
2018-02-11T07:27:17.200Z,2.30
2018-02-11T07:29:43.482Z,2.40
2018-02-11T07:32:10.533Z,2.60
2018-02-11T07:34:37.601Z,2.60
2018-02-11T07:37:03.885Z,2.60
2018-02-11T07:39:30.139Z,2.70
2018-02-11T07:42:04.109Z,3.00
2018-02-11T07:44:30.405Z,2.90
2018-02-11T07:46:56.734Z,3.00
2018-02-11T07:49:23.054Z,3.10
2018-02-11T07:51:49.309Z,3.30
2018-02-11T07:54:15.638Z,3.40
2018-02-11T07:56:41.932Z,3.50
2018-02-11T07:59:08.981Z,3.60
2018-02-11T08:01:36.027Z,3.60
2018-02-11T08:04:03.088Z,3.60
2018-02-11T08:06:29.365Z,3.60
2018-02-11T08:08:55.660Z,3.50
2018-02-11T08:11:21.908Z,3.60
2018-02-11T08:13:48.259Z,3.80
2018-02-11T08:16:14.525Z,3.70
2018-02-11T08:18:41.756Z,3.80
2018-02-11T08:21:08.071Z,3.70
2018-02-11T08:23:34.368Z,3.70
2018-02-11T08:26:00.668Z,3.90
2018-02-11T08:28:27.060Z,4.30
2018-02-11T08:30:53.348Z,4.50
2018-02-11T08:33:19.642Z,4.40
2018-02-11T08:35:45.958Z,4.30
2018-02-11T08:38:12.248Z,4.30
2018-02-11T08:40:38.551Z,4.40
2018-02-11T08:43:05.586Z,4.70
2018-02-11T08:45:31.897Z,4.60
2018-02-11T08:47:58.168Z,4.90
2018-02-11T08:50:25.193Z,5.00
2018-02-11T08:52:51.453Z,5.00
2018-02-11T08:55:18.477Z,4.90
2018-02-11T08:57:44.756Z,4.90
2018-02-11T09:00:11.061Z,5.00
2018-02-11T09:02:37.339Z,5.40
2018-02-11T09:05:03.680Z,5.70
2018-02-11T09:07:30.054Z,5.40
2018-02-11T09:09:57.119Z,5.60
2018-02-11T09:12:23.431Z,5.50
2018-02-11T09:14:50.480Z,6.10
2018-02-11T09:17:16.874Z,6.00
2018-02-11T09:19:43.280Z,5.60
2018-02-11T09:22:10.036Z,5.90
2018-02-11T09:24:36.333Z,5.70
2018-02-11T09:27:02.688Z,6.00
2018-02-11T09:29:29.287Z,5.60
2018-02-11T09:31:55.596Z,5.50
2018-02-11T09:34:21.962Z,5.50
2018-02-11T09:36:48.309Z,5.60
2018-02-11T09:39:15.627Z,5.40
2018-02-11T09:41:41.993Z,5.30
2018-02-11T09:44:08.309Z,5.50
2018-02-11T09:46:35.050Z,5.90
2018-02-11T09:49:01.352Z,6.20
2018-02-11T09:51:27.683Z,6.50
2018-02-11T09:53:54.042Z,6.60
2018-02-11T09:56:20.453Z,6.30
2018-02-11T09:58:47.029Z,6.40
2018-02-11T10:01:13.327Z,6.30
2018-02-11T10:03:40.368Z,6.20
2018-02-11T10:06:06.638Z,6.20
2018-02-11T10:08:32.938Z,6.20
2018-02-11T10:10:59.286Z,6.20
2018-02-11T10:13:25.578Z,6.40
2018-02-11T10:15:51.833Z,6.40
2018-02-11T10:18:18.914Z,6.20
2018-02-11T10:20:45.930Z,6.10
2018-02-11T10:23:12.920Z,5.60
2018-02-11T10:25:39.295Z,5.60
2018-02-11T10:28:05.643Z,5.80
2018-02-11T10:30:32.773Z,5.90
2018-02-11T10:33:00.213Z,5.90
2018-02-11T10:35:26.506Z,5.90
2018-02-11T10:37:53.046Z,6.40
2018-02-11T10:40:19.983Z,6.90
2018-02-11T10:42:46.252Z,6.40
2018-02-11T10:45:12.897Z,6.10
2018-02-11T10:47:39.964Z,6.10
2018-02-11T10:50:07.037Z,5.80
2018-02-11T10:52:33.313Z,5.70
2018-02-11T10:55:00.329Z,5.60
2018-02-11T10:57:26.769Z,5.60
2018-02-11T10:59:53.064Z,5.70
2018-02-11T11:02:20.123Z,5.50
2018-02-11T11:04:46.431Z,5.50
2018-02-11T11:07:13.169Z,5.60
2018-02-11T11:09:39.607Z,5.60
2018-02-11T11:12:06.405Z,6.00
2018-02-11T11:14:32.886Z,6.20
2018-02-11T11:16:59.281Z,6.60
2018-02-11T11:19:26.449Z,7.30
2018-02-11T11:21:52.819Z,6.90
2018-02-11T11:24:19.070Z,6.80
2018-02-11T11:26:45.632Z,6.90
2018-02-11T11:29:11.894Z,6.70
2018-02-11T11:31:38.310Z,6.30
2018-02-11T11:34:04.616Z,6.50
2018-02-11T11:36:30.898Z,7.00
2018-02-11T11:38:58.906Z,6.80
2018-02-11T11:41:25.165Z,6.80
2018-02-11T11:43:51.527Z,6.80
2018-02-11T11:46:18.605Z,6.70
2018-02-11T11:48:44.901Z,6.70
2018-02-11T11:51:11.151Z,6.40
2018-02-11T11:53:37.952Z,6.10
2018-02-11T11:56:04.323Z,5.70
2018-02-11T11:58:31.944Z,6.20
2018-02-11T12:00:58.662Z,6.20
2018-02-11T12:03:24.956Z,6.40
2018-02-11T12:05:51.954Z,6.40
2018-02-11T12:08:18.434Z,6.40
2018-02-11T12:10:44.860Z,6.60
2018-02-11T12:13:11.568Z,6.40
2018-02-11T12:15:38.538Z,6.40
2018-02-11T12:18:05.587Z,6.40
2018-02-11T12:20:32.595Z,6.40
2018-02-11T12:22:59.641Z,6.60
2018-02-11T12:25:25.915Z,6.60
2018-02-11T12:27:54.307Z,7.00
2018-02-11T12:30:20.587Z,7.00
2018-02-11T12:32:47.741Z,7.30
2018-02-11T12:35:14.110Z,7.30
2018-02-11T12:37:40.378Z,7.10
2018-02-11T12:40:06.640Z,7.40
2018-02-11T12:42:32.922Z,7.40
2018-02-11T12:44:59.633Z,6.90
2018-02-11T12:47:26.038Z,6.70
2018-02-11T12:49:52.442Z,6.60
2018-02-11T12:52:18.710Z,6.40
2018-02-11T12:54:44.987Z,6.60
2018-02-11T12:57:11.254Z,6.50
2018-02-11T12:59:37.532Z,6.70
2018-02-11T13:02:05.680Z,6.70
2018-02-11T13:04:32.355Z,6.70
2018-02-11T13:06:59.477Z,6.90
2018-02-11T13:09:25.789Z,7.10
2018-02-11T13:11:52.097Z,6.70
2018-02-11T13:14:18.337Z,6.50
2018-02-11T13:16:44.607Z,6.60
2018-02-11T13:19:11.602Z,6.70
2018-02-11T13:21:37.909Z,6.70
2018-02-11T13:24:04.187Z,6.40
2018-02-11T13:26:30.584Z,6.30
2018-02-11T13:28:58.734Z,6.30
2018-02-11T13:31:24.994Z,6.30
2018-02-11T13:33:51.222Z,6.30
2018-02-11T13:36:19.626Z,6.20
2018-02-11T13:38:45.866Z,6.10
2018-02-11T13:41:12.102Z,6.10
2018-02-11T13:43:38.356Z,6.20
2018-02-11T13:46:04.705Z,6.20
2018-02-11T13:48:31.745Z,6.20
2018-02-11T13:50:59.702Z,6.40
2018-02-11T13:53:25.975Z,6.40
2018-02-11T13:55:52.246Z,6.10
2018-02-11T13:58:20.367Z,6.30
2018-02-11T14:00:46.697Z,6.30
2018-02-11T14:03:12.932Z,6.50
2018-02-11T14:05:39.253Z,6.30
2018-02-11T14:08:05.584Z,6.30
2018-02-11T14:10:32.949Z,6.00
2018-02-11T14:12:59.248Z,5.80
2018-02-11T14:15:26.458Z,5.50
2018-02-11T14:17:52.698Z,5.50
2018-02-11T14:20:18.983Z,5.70
2018-02-11T14:22:45.283Z,5.70
2018-02-11T14:25:11.550Z,5.60
2018-02-11T14:27:38.916Z,5.20
2018-02-11T14:30:05.174Z,4.90
2018-02-11T14:32:31.477Z,4.70
2018-02-11T14:34:57.749Z,4.70
2018-02-11T14:37:24.753Z,4.60
2018-02-11T14:39:51.002Z,4.60
2018-02-11T14:42:17.297Z,4.60
2018-02-11T14:44:43.551Z,4.40
2018-02-11T14:47:09.883Z,4.20
2018-02-11T14:49:36.931Z,4.00
2018-02-11T14:52:03.199Z,4.00
2018-02-11T14:54:30.223Z,3.90
2018-02-11T14:56:56.490Z,3.90
2018-02-11T14:59:23.661Z,4.00
2018-02-11T15:01:49.974Z,3.90
2018-02-11T15:04:16.970Z,3.90
2018-02-11T15:06:43.232Z,3.90
2018-02-11T15:09:09.495Z,3.80
2018-02-11T15:11:35.790Z,3.90
2018-02-11T15:14:02.186Z,4.00
2018-02-11T15:16:29.065Z,4.00
2018-02-11T15:18:55.370Z,4.20
2018-02-11T15:21:22.395Z,4.40
2018-02-11T15:23:48.825Z,4.40
2018-02-11T15:26:15.096Z,4.40
2018-02-11T15:28:41.337Z,4.40
2018-02-11T15:31:08.481Z,4.50
2018-02-11T15:33:34.738Z,4.50
2018-02-11T15:36:00.985Z,4.60
2018-02-11T15:38:27.241Z,4.70
2018-02-11T15:40:53.511Z,4.70
2018-02-11T15:43:20.595Z,4.60
2018-02-11T15:45:46.892Z,4.60
2018-02-11T15:48:13.297Z,4.70
2018-02-11T15:50:39.581Z,4.70
2018-02-11T15:53:05.831Z,4.80
2018-02-11T15:55:32.091Z,4.80
2018-02-11T15:57:58.478Z,4.80
2018-02-11T16:00:24.743Z,4.80
2018-02-11T16:02:51.032Z,4.70
2018-02-11T16:05:17.364Z,4.80
2018-02-11T16:07:43.624Z,4.80
2018-02-11T16:10:09.904Z,4.70
2018-02-11T16:12:36.880Z,4.80
2018-02-11T16:15:03.224Z,4.80
2018-02-11T16:17:29.453Z,4.90
2018-02-11T16:19:55.824Z,5.00
2018-02-11T16:22:22.093Z,5.00
2018-02-11T16:24:48.357Z,4.90
2018-02-11T16:27:14.607Z,4.90
2018-02-11T16:29:40.864Z,4.80
2018-02-11T16:32:07.909Z,4.80
2018-02-11T16:34:34.988Z,4.80
2018-02-11T16:37:01.311Z,4.80
2018-02-11T16:39:27.583Z,4.80
2018-02-11T16:41:53.889Z,4.90
2018-02-11T16:44:20.179Z,4.70
2018-02-11T16:46:46.448Z,4.80
2018-02-11T16:49:13.657Z,4.80
2018-02-11T16:51:40.772Z,4.80
2018-02-11T16:54:07.061Z,4.80
2018-02-11T16:56:33.366Z,4.80
2018-02-11T16:59:00.460Z,4.80
2018-02-11T17:01:27.029Z,4.80
2018-02-11T17:03:53.316Z,4.80
2018-02-11T17:06:19.629Z,4.80
2018-02-11T17:08:45.892Z,4.90
2018-02-11T17:11:12.208Z,4.90
2018-02-11T17:13:38.522Z,4.80
2018-02-11T17:16:04.800Z,4.90
2018-02-11T17:18:31.135Z,4.90
2018-02-11T17:20:57.413Z,4.80
2018-02-11T17:23:23.688Z,4.80
2018-02-11T17:25:50.023Z,4.60
2018-02-11T17:28:16.939Z,4.60
2018-02-11T17:30:43.216Z,4.60
2018-02-11T17:33:10.105Z,4.70
2018-02-11T17:35:36.385Z,4.70
2018-02-11T17:38:02.773Z,4.70
2018-02-11T17:40:29.269Z,4.80
2018-02-11T17:42:55.724Z,4.80
2018-02-11T17:45:22.037Z,4.80
2018-02-11T17:47:49.118Z,4.90
2018-02-11T17:50:15.485Z,4.80
2018-02-11T17:52:41.870Z,4.80
2018-02-11T17:55:08.303Z,4.70
2018-02-11T17:57:34.797Z,4.50
2018-02-11T18:00:01.072Z,4.60
2018-02-11T18:02:27.489Z,4.60
2018-02-11T18:04:54.775Z,4.80
2018-02-11T18:07:21.070Z,4.70
2018-02-11T18:09:48.210Z,4.50
2018-02-11T18:12:14.606Z,4.50
2018-02-11T18:14:41.067Z,4.60
2018-02-11T18:17:08.913Z,4.40
2018-02-11T18:19:35.289Z,4.40
2018-02-11T18:22:04.934Z,4.40
2018-02-11T18:24:31.286Z,4.40
2018-02-11T18:26:57.616Z,4.40
2018-02-11T18:29:23.985Z,4.50
2018-02-11T18:31:51.125Z,4.70
2018-02-11T18:34:17.517Z,4.70
2018-02-11T18:36:43.862Z,4.70
2018-02-11T18:39:10.238Z,4.80
2018-02-11T18:41:37.586Z,4.80
2018-02-11T18:44:04.644Z,4.90
2018-02-11T18:46:31.741Z,4.70
2018-02-11T18:48:58.152Z,4.70
2018-02-11T18:51:24.497Z,4.50
2018-02-11T18:53:50.803Z,4.30
2018-02-11T18:56:17.311Z,4.20
2018-02-11T18:58:43.766Z,4.00
2018-02-11T19:01:10.305Z,3.90
2018-02-11T19:03:37.402Z,4.00
2018-02-11T19:06:03.753Z,4.00
2018-02-11T19:08:30.177Z,4.10
2018-02-11T19:10:56.580Z,4.10
2018-02-11T19:13:22.923Z,4.10
2018-02-11T19:15:49.242Z,4.20
2018-02-11T19:18:15.578Z,4.20
2018-02-11T19:20:41.933Z,4.20
2018-02-11T19:23:08.390Z,4.30
2018-02-11T19:25:34.826Z,4.30
2018-02-11T19:28:02.069Z,4.20
2018-02-11T19:30:28.452Z,4.20
2018-02-11T19:32:54.733Z,4.20
2018-02-11T19:35:21.037Z,4.30
2018-02-11T19:37:47.360Z,4.30
2018-02-11T19:40:13.632Z,4.30
2018-02-11T19:42:40.103Z,4.30
2018-02-11T19:45:06.398Z,4.30
2018-02-11T19:47:32.972Z,4.20
2018-02-11T19:49:59.332Z,4.40
2018-02-11T19:52:25.705Z,4.40
2018-02-11T19:54:52.074Z,4.40
2018-02-11T19:57:18.384Z,4.50
2018-02-11T19:59:44.667Z,4.60
2018-02-11T20:02:11.001Z,4.60
2018-02-11T20:04:37.498Z,4.50
2018-02-11T20:07:03.810Z,4.60
2018-02-11T20:09:30.107Z,4.50
2018-02-11T20:11:56.415Z,4.60
2018-02-11T20:14:22.731Z,4.50
2018-02-11T20:16:49.082Z,4.50
2018-02-11T20:19:15.406Z,4.50
2018-02-11T20:21:41.748Z,4.60
2018-02-11T20:24:08.022Z,4.60
2018-02-11T20:26:34.404Z,4.60
2018-02-11T20:29:00.904Z,4.60
2018-02-11T20:31:27.262Z,4.70
2018-02-11T20:33:53.556Z,4.40
2018-02-11T20:36:20.623Z,4.50
2018-02-11T20:38:46.955Z,4.50
2018-02-11T20:41:13.254Z,4.30
2018-02-11T20:43:40.374Z,4.20
2018-02-11T20:46:06.657Z,4.10
2018-02-11T20:48:32.966Z,4.10
2018-02-11T20:51:00.021Z,4.20
2018-02-11T20:53:26.413Z,4.20
2018-02-11T20:55:52.711Z,4.20
2018-02-11T20:58:19.013Z,4.20
2018-02-11T21:00:46.093Z,4.10
2018-02-11T21:03:12.395Z,4.10
2018-02-11T21:05:39.423Z,4.30
2018-02-11T21:08:06.458Z,4.30
2018-02-11T21:10:32.714Z,4.30
2018-02-11T21:12:59.723Z,4.30
2018-02-11T21:15:26.069Z,4.30
2018-02-11T21:17:52.384Z,4.20
2018-02-11T21:20:18.655Z,4.30
2018-02-11T21:22:45.665Z,4.30
2018-02-11T21:25:11.924Z,4.30
2018-02-11T21:27:38.941Z,4.30
2018-02-11T21:30:05.303Z,4.20
2018-02-11T21:32:32.331Z,4.20
2018-02-11T21:34:58.613Z,4.20
2018-02-11T21:37:25.001Z,4.20
2018-02-11T21:39:51.303Z,4.30
2018-02-11T21:42:17.583Z,4.20
2018-02-11T21:44:44.591Z,4.20
2018-02-11T21:47:10.872Z,4.20
2018-02-11T21:49:37.146Z,4.20
2018-02-11T21:52:03.426Z,4.10
2018-02-11T21:54:29.776Z,4.20
2018-02-11T21:56:56.856Z,4.20
2018-02-11T21:59:23.208Z,4.20
2018-02-11T22:01:50.264Z,4.10
2018-02-11T22:04:17.284Z,4.00
2018-02-11T22:06:43.599Z,4.00
2018-02-11T22:09:09.826Z,3.90
2018-02-11T22:11:36.102Z,3.90
2018-02-11T22:14:03.158Z,3.80
2018-02-11T22:16:29.474Z,3.80
2018-02-11T22:18:55.740Z,3.70
2018-02-11T22:21:22.017Z,3.60
2018-02-11T22:23:48.277Z,3.50
2018-02-11T22:26:15.304Z,3.40
2018-02-11T22:28:41.597Z,3.40
2018-02-11T22:31:07.849Z,3.40
2018-02-11T22:33:34.111Z,3.30
2018-02-11T22:36:01.119Z,3.40
2018-02-11T22:38:27.353Z,3.40
2018-02-11T22:40:53.672Z,3.30
2018-02-11T22:43:19.943Z,3.30
2018-02-11T22:45:46.186Z,3.30
2018-02-11T22:48:13.199Z,3.30
2018-02-11T22:50:39.502Z,3.30
2018-02-11T22:53:05.792Z,3.20
2018-02-11T22:55:32.797Z,3.20
2018-02-11T22:57:59.077Z,3.20
2018-02-11T23:02:51.731Z,3.20
2018-02-11T23:05:18.746Z,3.00
2018-02-11T23:07:45.043Z,3.00
2018-02-11T23:10:11.280Z,3.10
2018-02-11T23:12:37.573Z,3.00
2018-02-11T23:15:03.827Z,2.90
2018-02-11T23:17:30.107Z,2.90
2018-02-11T23:19:56.417Z,2.90
2018-02-11T23:22:22.688Z,2.80
2018-02-11T23:24:49.697Z,2.70
2018-02-11T23:27:15.980Z,2.70
2018-02-11T23:29:42.251Z,2.70
2018-02-11T23:32:08.549Z,2.70
2018-02-11T23:34:34.811Z,2.70
2018-02-11T23:37:01.121Z,2.60
2018-02-11T23:39:27.388Z,2.70
2018-02-11T23:41:53.635Z,2.70
2018-02-11T23:44:20.664Z,2.70
2018-02-11T23:46:46.961Z,2.70
2018-02-11T23:49:13.223Z,2.60
2018-02-11T23:51:39.452Z,2.60
2018-02-11T23:54:05.746Z,2.60
2018-02-11T23:56:32.092Z,2.60
2018-02-11T23:58:58.411Z,2.60
